KTIX/TIX METAR and TAF weather

Enter ICAO airport designator
Station Type Date Time Source
KTIX METAR 2019/11/22 00:48 UTC NOAA

KTIX 220048Z VRB04KT 7SM SCT060 20/16 A3019


Station Type Date Time Source
KTIX Decoded METAR 2019/11/22 00:48 UTC NOAA

Titusville, FL, United States (KTIX) 28-31N 080-48W
Nov 21, 2019 - 07:48 PM EST / 2019.11.22 0048 UTC
Wind: Variable at 5 MPH (4 KT):0
Visibility: 7 mile(s):0
Sky conditions: partly cloudy
Temperature: 68 F (20 C)
Dew Point: 60 F (16 C)
Relative Humidity: 77%
Pressure (altimeter): 30.19 in. Hg (1022 hPa)
ob: KTIX 220048Z VRB04KT 7SM SCT060 20/16 A3019
cycle: 1

Station Type Date Time Source
KTIX TAF 2019/11/21 18:34 UTC NOAA

TAF KTIX 211732Z 2118/2218 06010KT P6SM SCT050
FM220000 VRB03KT P6SM FEW040
FM221500 18005KT P6SM FEW035 SCT250

Example: see airport list